Time;durP1;ratioP1;P1;durP2;ratioP2;P2;SDS_P1;SDS_P2;PMS_P1;PMS_P2;Temp;Humidity;BMP_temperature;BMP_pressure;BME280_temperature;BME280_humidity;BME280_pressure;Samples;Min_cycle;Max_cycle;Signal;HPM_P1;HPM_P2
2021/06/20 00:00:49;;;;;;;1.10;1.00;;;25.20;60.20;;;;;;4978986;28;20061;-31
2021/06/20 00:03:15;;;;;;;1.50;1.10;;;25.10;60.10;;;;;;4978371;28;20133;-30
2021/06/20 00:05:56;;;;;;;1.58;1.13;;;25.00;60.00;;;;;;4976669;28;20038;-30
2021/06/20 00:08:22;;;;;;;1.30;0.80;;;25.10;60.00;;;;;;4978201;28;20051;-30
2021/06/20 00:10:51;;;;;;;0.95;0.93;;;25.20;59.90;;;;;;4978171;28;20041;-30
2021/06/20 00:13:17;;;;;;;2.53;0.85;;;25.00;60.00;;;;;;4979728;28;20026;-27
2021/06/20 00:15:43;;;;;;;1.08;0.98;;;25.10;60.10;;;;;;4976845;28;20030;-29
2021/06/20 00:18:09;;;;;;;0.90;0.82;;;25.10;60.00;;;;;;4978692;28;20392;-28
2021/06/20 00:20:37;;;;;;;0.80;0.80;;;25.10;60.00;;;;;;4977481;28;20424;-31
2021/06/20 00:23:02;;;;;;;0.75;0.75;;;25.10;59.80;;;;;;4978535;28;20471;-31
2021/06/20 00:25:28;;;;;;;0.82;0.82;;;25.10;59.80;;;;;;4978652;28;20034;-29
2021/06/20 00:27:54;;;;;;;1.05;0.80;;;25.10;59.80;;;;;;4978168;28;20089;-25
2021/06/20 00:30:21;;;;;;;1.25;1.00;;;25.10;59.90;;;;;;4976667;28;20512;-28
2021/06/20 00:32:47;;;;;;;1.00;1.00;;;25.10;59.90;;;;;;4982028;28;20038;-30
2021/06/20 00:35:13;;;;;;;1.67;0.90;;;25.10;59.80;;;;;;4980775;28;20069;-27
2021/06/20 00:37:39;;;;;;;0.90;0.90;;;25.10;59.90;;;;;;4981327;28;20034;-33
2021/06/20 00:40:05;;;;;;;1.42;1.00;;;25.10;60.00;;;;;;4983568;28;20042;-34
2021/06/20 00:42:31;;;;;;;0.90;0.90;;;25.10;59.90;;;;;;4981391;28;20518;-30
2021/06/20 00:44:57;;;;;;;1.30;1.10;;;25.10;59.90;;;;;;4980513;28;20404;-33
2021/06/20 00:47:22;;;;;;;2.15;0.90;;;25.00;60.00;;;;;;4980432;28;20034;-33
2021/06/20 00:49:48;;;;;;;1.52;0.85;;;25.10;59.80;;;;;;4981835;28;20105;-34
2021/06/20 00:52:14;;;;;;;0.85;0.70;;;25.10;59.80;;;;;;4982297;28;20045;-29
2021/06/20 00:54:47;;;;;;;2.22;1.17;;;25.00;59.80;;;;;;4979950;28;20146;-32
2021/06/20 00:57:16;;;;;;;1.35;0.90;;;25.00;59.80;;;;;;4980753;28;20045;-33
2021/06/20 00:59:43;;;;;;;1.42;1.10;;;25.00;59.80;;;;;;4979574;28;20030;-36
2021/06/20 01:02:12;;;;;;;1.60;0.80;;;25.00;59.80;;;;;;4981912;28;20041;-30
2021/06/20 01:04:43;;;;;;;0.70;0.70;;;25.00;59.70;;;;;;4979073;28;20121;-31
2021/06/20 01:07:09;;;;;;;2.03;0.77;;;25.00;59.80;;;;;;4982198;28;20056;-30
2021/06/20 01:09:35;;;;;;;1.02;0.90;;;25.00;59.80;;;;;;4980692;28;20035;-33
2021/06/20 01:12:01;;;;;;;1.10;1.00;;;25.00;59.80;;;;;;4981076;28;20037;-29
2021/06/20 01:14:26;;;;;;;1.00;1.00;;;25.00;59.60;;;;;;4980808;28;20501;-28
2021/06/20 01:16:53;;;;;;;1.02;0.85;;;25.00;59.60;;;;;;4981473;28;20094;-36
2021/06/20 01:19:19;;;;;;;1.00;1.00;;;25.00;59.70;;;;;;4980508;28;20133;-29
2021/06/20 01:21:45;;;;;;;1.10;1.00;;;24.90;59.80;;;;;;4980148;28;20030;-29
2021/06/20 01:24:11;;;;;;;0.90;0.90;;;25.00;59.80;;;;;;4980071;28;20065;-31
2021/06/20 01:26:38;;;;;;;0.80;0.80;;;25.00;59.80;;;;;;4978885;28;20126;-34
2021/06/20 01:29:05;;;;;;;0.95;0.90;;;25.00;59.70;;;;;;4980901;28;20092;-32
2021/06/20 01:31:33;;;;;;;1.67;0.95;;;24.90;59.60;;;;;;4982757;28;20049;-27
2021/06/20 01:33:58;;;;;;;0.90;0.80;;;25.00;59.50;;;;;;4980214;28;20038;-34
2021/06/20 01:36:24;;;;;;;2.17;0.80;;;25.00;59.50;;;;;;4980524;28;20033;-33
2021/06/20 01:38:50;;;;;;;0.70;0.70;;;24.90;59.60;;;;;;4980243;28;20045;-29
2021/06/20 01:41:15;;;;;;;1.38;0.98;;;24.90;59.50;;;;;;4980296;28;20046;-28
2021/06/20 01:43:41;;;;;;;1.15;0.90;;;25.00;59.40;;;;;;4980317;28;20034;-31
2021/06/20 01:46:06;;;;;;;0.82;0.60;;;25.00;59.40;;;;;;4980239;28;20528;-26
2021/06/20 01:48:32;;;;;;;1.45;0.93;;;25.00;59.40;;;;;;4980026;28;20045;-29
2021/06/20 01:50:57;;;;;;;1.15;0.88;;;24.90;59.50;;;;;;4979781;28;20054;-30
2021/06/20 01:53:23;;;;;;;0.77;0.77;;;25.00;59.40;;;;;;5012120;28;20169;-28
2021/06/20 01:55:49;;;;;;;1.17;0.90;;;24.90;59.50;;;;;;4979389;28;20113;-29
2021/06/20 01:58:16;;;;;;;0.95;0.88;;;24.90;59.50;;;;;;4981360;28;20034;-35
2021/06/20 02:00:48;;;;;;;0.70;0.70;;;25.00;59.40;;;;;;4980485;28;20038;-33
2021/06/20 02:03:15;;;;;;;1.25;0.93;;;25.00;59.40;;;;;;4980057;28;20030;-24
2021/06/20 02:05:42;;;;;;;2.08;0.80;;;24.90;59.40;;;;;;4978673;28;20433;-30
2021/06/20 02:08:08;;;;;;;1.33;1.00;;;24.90;59.30;;;;;;4979466;28;20042;-27
2021/06/20 02:10:33;;;;;;;0.90;0.90;;;24.90;59.30;;;;;;4981400;28;20050;-30
2021/06/20 02:12:59;;;;;;;1.73;0.80;;;24.90;59.50;;;;;;4980549;28;20026;-29
2021/06/20 02:15:25;;;;;;;1.00;0.90;;;24.90;59.30;;;;;;4977239;28;20505;-31
2021/06/20 02:17:50;;;;;;;0.80;0.80;;;24.90;59.50;;;;;;4979403;28;20046;-30
2021/06/20 02:20:18;;;;;;;1.02;1.00;;;24.90;59.40;;;;;;4980540;28;20121;-32
2021/06/20 02:22:44;;;;;;;0.75;0.75;;;24.90;59.40;;;;;;4979579;28;20034;-30
2021/06/20 02:25:12;;;;;;;1.48;1.00;;;24.90;60.00;;;;;;4979681;28;20034;-35
2021/06/20 02:27:37;;;;;;;0.93;0.70;;;24.90;59.10;;;;;;4979451;28;20041;-29
2021/06/20 02:30:04;;;;;;;1.10;0.73;;;25.00;59.10;;;;;;4979743;28;20061;-39
2021/06/20 02:32:29;;;;;;;0.80;0.70;;;25.00;59.10;;;;;;4978994;28;20038;-28
2021/06/20 02:34:55;;;;;;;0.98;0.88;;;24.90;59.10;;;;;;4978237;28;20052;-33
2021/06/20 02:37:21;;;;;;;1.30;0.95;;;24.90;59.20;;;;;;4980300;28;20096;-30
2021/06/20 02:39:47;;;;;;;1.10;1.00;;;24.90;59.30;;;;;;4979520;28;20114;-28
2021/06/20 02:42:13;;;;;;;1.60;0.70;;;24.90;59.20;;;;;;4979774;28;20428;-35
2021/06/20 02:44:38;;;;;;;1.80;0.90;;;25.00;59.10;;;;;;4978400;28;20036;-31
2021/06/20 02:47:05;;;;;;;0.70;0.70;;;24.90;59.00;;;;;;4979227;28;20419;-29
2021/06/20 02:49:31;;;;;;;1.20;0.80;;;24.90;59.00;;;;;;4980848;28;20116;-34
2021/06/20 02:51:57;;;;;;;0.70;0.70;;;24.90;59.00;;;;;;4979741;28;20038;-30
2021/06/20 02:54:22;;;;;;;0.80;0.50;;;24.90;59.00;;;;;;4978430;28;20034;-32
2021/06/20 02:56:48;;;;;;;0.90;0.65;;;24.90;59.00;;;;;;4978917;28;20030;-31
2021/06/20 02:59:14;;;;;;;1.17;0.63;;;25.00;58.90;;;;;;4979288;28;20049;-30
2021/06/20 03:01:39;;;;;;;0.82;0.77;;;24.90;58.90;;;;;;4977615;28;20038;-29
2021/06/20 03:04:06;;;;;;;0.70;0.70;;;24.90;58.80;;;;;;4978668;28;20113;-29
2021/06/20 03:06:31;;;;;;;2.70;1.00;;;24.90;58.90;;;;;;4979595;28;20080;-28
2021/06/20 03:08:57;;;;;;;0.73;0.73;;;24.90;59.60;;;;;;4978955;28;20050;-32
2021/06/20 03:11:23;;;;;;;1.10;1.00;;;24.90;59.00;;;;;;4979688;28;20089;-30
2021/06/20 03:13:48;;;;;;;0.85;0.50;;;24.90;59.10;;;;;;4978972;28;20042;-28
2021/06/20 03:16:15;;;;;;;1.10;0.63;;;24.90;59.10;;;;;;4987527;28;20146;-32
2021/06/20 03:18:41;;;;;;;1.10;0.73;;;24.80;59.00;;;;;;4978741;28;20046;-33
2021/06/20 03:21:06;;;;;;;1.95;0.70;;;24.90;59.00;;;;;;4979294;28;20031;-38
2021/06/20 03:23:32;;;;;;;1.98;0.70;;;24.90;58.90;;;;;;4978362;28;20116;-30
2021/06/20 03:25:58;;;;;;;0.80;0.80;;;24.90;58.80;;;;;;4978011;28;20436;-32
2021/06/20 03:28:23;;;;;;;0.95;0.75;;;24.90;59.40;;;;;;4979430;28;20576;-29
2021/06/20 03:30:49;;;;;;;0.80;0.70;;;24.80;58.90;;;;;;4978571;28;20041;-28
2021/06/20 03:33:14;;;;;;;0.60;0.60;;;24.90;58.90;;;;;;4978844;28;20039;-33
2021/06/20 03:35:40;;;;;;;0.80;0.80;;;24.90;58.90;;;;;;4977748;28;20030;-30
2021/06/20 03:38:05;;;;;;;1.27;0.80;;;24.80;59.00;;;;;;4979178;28;20072;-28
2021/06/20 03:40:31;;;;;;;0.80;0.70;;;24.90;58.80;;;;;;4979911;28;20501;-31
2021/06/20 03:42:56;;;;;;;0.70;0.70;;;24.90;58.80;;;;;;5010330;28;20038;-32
2021/06/20 03:45:22;;;;;;;0.70;0.60;;;24.90;58.80;;;;;;4976978;28;20080;-31
2021/06/20 03:47:48;;;;;;;0.70;0.70;;;24.80;58.80;;;;;;4978602;28;20045;-29
2021/06/20 03:50:13;;;;;;;1.10;0.98;;;24.80;58.80;;;;;;4978971;28;20057;-34
2021/06/20 03:52:39;;;;;;;0.82;0.65;;;24.80;58.90;;;;;;4979429;28;20625;-27
2021/06/20 03:55:06;;;;;;;0.90;0.90;;;24.80;58.90;;;;;;4977901;28;20046;-30
2021/06/20 03:57:31;;;;;;;1.77;0.70;;;24.80;58.80;;;;;;4979074;28;20061;-32
2021/06/20 03:59:57;;;;;;;0.90;0.80;;;24.70;58.90;;;;;;4978643;28;20117;-30
2021/06/20 04:02:23;;;;;;;1.05;0.80;;;24.80;58.80;;;;;;4978426;28;20056;-30
2021/06/20 04:04:48;;;;;;;1.55;0.70;;;24.70;58.90;;;;;;4977124;28;20070;-33
2021/06/20 04:07:14;;;;;;;1.15;0.70;;;24.70;58.90;;;;;;4981643;28;20479;-32
2021/06/20 04:09:40;;;;;;;1.33;0.80;;;24.70;58.90;;;;;;4981920;28;20832;-30
2021/06/20 04:12:09;;;;;;;0.60;0.60;;;24.70;59.00;;;;;;4982480;28;20041;-31
2021/06/20 04:14:35;;;;;;;0.75;0.75;;;24.70;59.00;;;;;;4980929;28;20045;-31
2021/06/20 04:17:00;;;;;;;0.70;0.70;;;24.70;59.10;;;;;;4982708;28;20035;-35
2021/06/20 04:19:27;;;;;;;2.53;0.77;;;24.70;58.90;;;;;;4983891;28;20038;-32
2021/06/20 04:21:52;;;;;;;1.15;0.63;;;24.60;59.00;;;;;;4982916;28;20520;-29
2021/06/20 04:24:18;;;;;;;0.82;0.70;;;24.70;58.90;;;;;;4981178;28;20026;-29
2021/06/20 04:26:44;;;;;;;0.93;0.70;;;24.70;58.90;;;;;;4982311;28;20504;-33
2021/06/20 04:29:09;;;;;;;0.55;0.55;;;24.60;59.10;;;;;;4982033;28;20042;-30
2021/06/20 04:31:35;;;;;;;1.00;0.80;;;24.70;58.90;;;;;;4983382;28;20084;-28
2021/06/20 04:34:01;;;;;;;0.85;0.80;;;24.60;59.10;;;;;;4982072;28;20039;-27
2021/06/20 04:36:27;;;;;;;0.60;0.60;;;24.70;58.90;;;;;;4981992;28;20026;-27
2021/06/20 04:38:52;;;;;;;0.65;0.60;;;24.70;58.80;;;;;;4982139;28;20046;-30
2021/06/20 04:41:20;;;;;;;2.22;0.75;;;24.70;58.90;;;;;;4982162;28;20457;-28
2021/06/20 04:46:17;;;;;;;2.38;0.88;;;24.70;59.00;;;;;;4983088;28;20034;-31
2021/06/20 04:48:42;;;;;;;0.95;0.70;;;24.70;59.00;;;;;;4981566;28;20050;-30
2021/06/20 04:51:08;;;;;;;0.95;0.75;;;24.70;58.90;;;;;;4980392;28;20050;-33
2021/06/20 04:53:33;;;;;;;0.88;0.65;;;24.70;58.80;;;;;;4981127;28;20062;-30
2021/06/20 04:55:59;;;;;;;1.02;0.88;;;24.70;58.90;;;;;;4979344;28;20052;-32
2021/06/20 04:58:24;;;;;;;1.35;0.88;;;24.70;58.90;;;;;;4981757;28;20041;-32
2021/06/20 05:00:50;;;;;;;0.82;0.70;;;24.60;59.00;;;;;;4980291;28;20069;-31
2021/06/20 05:03:16;;;;;;;0.90;0.70;;;24.70;58.90;;;;;;5011115;28;20026;-28
2021/06/20 05:05:41;;;;;;;0.60;0.60;;;24.60;59.00;;;;;;4978497;28;20625;-32
2021/06/20 05:08:07;;;;;;;0.95;0.70;;;24.70;58.90;;;;;;4980262;28;20034;-31
2021/06/20 05:10:32;;;;;;;1.67;0.70;;;24.70;58.90;;;;;;4981069;28;20184;-29
2021/06/20 05:12:58;;;;;;;0.60;0.60;;;24.70;58.80;;;;;;4980222;28;20042;-30
2021/06/20 05:15:23;;;;;;;0.73;0.73;;;24.70;58.90;;;;;;4978178;28;20063;-27
2021/06/20 05:17:49;;;;;;;1.77;0.70;;;24.70;58.90;;;;;;4979805;28;20026;-32
2021/06/20 05:20:15;;;;;;;1.88;0.70;;;24.70;58.90;;;;;;4980240;28;20038;-33
2021/06/20 05:22:40;;;;;;;1.40;0.80;;;24.70;58.90;;;;;;4979891;28;20708;-29
2021/06/20 05:25:06;;;;;;;1.15;0.90;;;24.70;58.90;;;;;;4979287;28;20121;-29
2021/06/20 05:27:32;;;;;;;1.85;0.82;;;24.60;58.80;;;;;;4979236;28;20651;-33
2021/06/20 05:29:57;;;;;;;0.85;0.85;;;24.70;58.80;;;;;;4978960;28;20053;-29
2021/06/20 05:32:23;;;;;;;1.77;0.75;;;24.70;58.90;;;;;;4979835;28;20026;-32
2021/06/20 05:34:49;;;;;;;0.70;0.70;;;24.70;59.00;;;;;;4975120;28;20145;-38
2021/06/20 05:37:14;;;;;;;3.90;0.95;;;24.60;59.10;;;;;;4980536;28;20030;-32
2021/06/20 05:39:40;;;;;;;0.80;0.80;;;24.70;59.60;;;;;;4978348;28;20108;-43
2021/06/20 05:42:06;;;;;;;1.13;0.68;;;24.60;59.10;;;;;;4979036;28;20037;-33
2021/06/20 05:44:31;;;;;;;1.05;0.80;;;24.70;59.00;;;;;;4975847;28;21416;-30
2021/06/20 05:46:58;;;;;;;1.20;0.80;;;24.70;59.00;;;;;;4978814;28;20034;-28
2021/06/20 05:49:23;;;;;;;0.70;0.60;;;24.70;59.00;;;;;;4975609;28;124497;-31
2021/06/20 05:51:49;;;;;;;1.02;0.82;;;24.70;59.10;;;;;;4980098;28;20038;-29
2021/06/20 05:54:15;;;;;;;0.93;0.60;;;24.70;59.10;;;;;;4976569;28;20733;-28
2021/06/20 05:56:40;;;;;;;1.00;0.70;;;24.70;59.10;;;;;;4978494;28;20030;-24
2021/06/20 05:59:06;;;;;;;1.10;0.90;;;24.60;59.20;;;;;;4979313;28;20050;-34
2021/06/20 06:01:32;;;;;;;3.55;1.15;;;24.60;59.80;;;;;;4980570;28;20081;-31
2021/06/20 06:03:57;;;;;;;0.98;0.80;;;24.60;59.20;;;;;;4976314;28;20050;-35
2021/06/20 06:06:23;;;;;;;1.83;0.80;;;24.60;59.20;;;;;;4978633;28;20033;-34
2021/06/20 06:08:49;;;;;;;2.17;0.90;;;24.60;59.40;;;;;;4979480;28;20046;-35
2021/06/20 06:11:14;;;;;;;0.85;0.80;;;24.40;59.50;;;;;;4978871;28;20456;-34
2021/06/20 06:13:40;;;;;;;1.25;0.88;;;24.50;59.50;;;;;;4979383;28;20045;-36
2021/06/20 06:16:05;;;;;;;5.25;0.90;;;24.50;59.50;;;;;;4977862;28;20038;-34
2021/06/20 06:18:31;;;;;;;1.55;0.90;;;24.60;59.40;;;;;;4979107;28;20065;-28
2021/06/20 06:20:56;;;;;;;0.85;0.70;;;24.60;59.30;;;;;;4978961;28;20030;-31
2021/06/20 06:23:22;;;;;;;1.17;0.90;;;24.60;59.40;;;;;;4979357;28;20034;-35
2021/06/20 06:25:48;;;;;;;2.03;1.08;;;24.60;59.40;;;;;;4977156;28;20578;-38
2021/06/20 06:28:15;;;;;;;3.08;0.85;;;24.60;59.40;;;;;;4978357;28;20031;-31
2021/06/20 06:30:40;;;;;;;2.47;0.88;;;24.60;59.20;;;;;;4978256;28;20042;-29
2021/06/20 06:33:06;;;;;;;2.88;0.93;;;24.60;59.30;;;;;;4979830;28;20512;-32
2021/06/20 06:35:32;;;;;;;1.80;0.90;;;24.50;59.50;;;;;;4976658;28;20168;-32
2021/06/20 06:37:58;;;;;;;0.93;0.80;;;24.60;59.40;;;;;;4978730;28;20034;-31
2021/06/20 06:40:23;;;;;;;0.85;0.80;;;24.60;59.40;;;;;;4979655;28;20698;-31
2021/06/20 06:42:49;;;;;;;2.50;1.00;;;24.60;59.50;;;;;;4977089;28;20046;-30
2021/06/20 06:45:16;;;;;;;1.00;0.90;;;24.60;59.40;;;;;;4976755;28;20034;-32
2021/06/20 06:47:42;;;;;;;1.77;0.80;;;24.60;59.40;;;;;;4978494;28;20038;-34
2021/06/20 06:50:08;;;;;;;1.45;0.85;;;24.60;59.50;;;;;;4978045;28;20442;-30
2021/06/20 06:52:34;;;;;;;1.13;0.85;;;24.50;59.80;;;;;;4979992;28;20121;-30
2021/06/20 06:55:00;;;;;;;1.45;1.02;;;24.50;60.00;;;;;;4976990;28;20038;-35
2021/06/20 06:57:27;;;;;;;1.73;0.80;;;24.50;59.90;;;;;;4978138;28;20419;-30
2021/06/20 06:59:53;;;;;;;2.55;0.68;;;24.50;59.90;;;;;;4977150;28;20060;-29
2021/06/20 07:02:19;;;;;;;0.77;0.68;;;24.60;59.80;;;;;;4976532;28;20496;-34
2021/06/20 07:04:46;;;;;;;1.05;0.95;;;24.60;59.70;;;;;;4975264;28;20582;-32
2021/06/20 07:07:12;;;;;;;3.00;1.08;;;24.60;59.70;;;;;;4978622;28;20706;-33
2021/06/20 07:09:38;;;;;;;1.45;1.00;;;24.60;59.70;;;;;;4977030;28;20627;-38
2021/06/20 07:12:04;;;;;;;1.88;1.00;;;24.60;59.80;;;;;;4978698;28;20084;-30
2021/06/20 07:14:33;;;;;;;1.33;0.90;;;24.60;59.80;;;;;;4976260;28;20034;-31
2021/06/20 07:16:59;;;;;;;1.08;0.95;;;24.60;59.90;;;;;;4978556;28;20038;-35
2021/06/20 07:19:24;;;;;;;0.60;0.60;;;24.60;59.90;;;;;;4979081;28;20069;-31
2021/06/20 07:21:50;;;;;;;3.33;1.27;;;24.60;59.90;;;;;;4978996;28;20088;-34
2021/06/20 07:24:17;;;;;;;0.95;0.60;;;24.60;60.00;;;;;;4975153;28;20587;-31
2021/06/20 07:26:42;;;;;;;2.75;1.08;;;24.50;60.30;;;;;;4978618;28;20037;-35
2021/06/20 07:29:08;;;;;;;0.80;0.80;;;24.60;60.10;;;;;;4978279;28;20046;-31
2021/06/20 07:31:34;;;;;;;1.70;1.17;;;24.60;60.10;;;;;;4980058;28;20109;-37
2021/06/20 07:33:59;;;;;;;1.25;0.60;;;24.60;60.10;;;;;;4976641;28;20030;-32
2021/06/20 07:36:25;;;;;;;0.80;0.80;;;24.60;60.00;;;;;;4976893;28;20049;-33
2021/06/20 07:38:50;;;;;;;2.65;0.70;;;24.60;59.90;;;;;;4976994;28;20038;-30
2021/06/20 07:41:16;;;;;;;1.00;0.80;;;24.60;60.10;;;;;;4978580;28;20544;-28
2021/06/20 07:43:42;;;;;;;0.70;0.68;;;24.60;60.00;;;;;;4978500;28;20117;-33
2021/06/20 07:46:07;;;;;;;0.90;0.90;;;24.60;60.10;;;;;;4975627;28;20042;-37
2021/06/20 07:48:35;;;;;;;1.15;0.63;;;24.60;60.20;;;;;;4977080;28;20424;-31
2021/06/20 07:51:00;;;;;;;1.50;0.80;;;24.60;60.10;;;;;;4977911;28;20105;-32
2021/06/20 07:53:26;;;;;;;2.33;0.98;;;24.60;60.00;;;;;;4978220;28;20034;-30
2021/06/20 07:55:51;;;;;;;2.05;0.70;;;24.60;59.90;;;;;;4975224;28;20479;-30
2021/06/20 07:58:17;;;;;;;1.00;0.80;;;24.70;59.80;;;;;;4979762;28;20685;-30
2021/06/20 08:00:43;;;;;;;1.15;1.00;;;24.70;59.80;;;;;;4977105;28;20525;-32
2021/06/20 08:03:09;;;;;;;0.85;0.65;;;24.70;59.70;;;;;;4978895;28;20026;-32
2021/06/20 08:05:35;;;;;;;0.70;0.60;;;24.70;59.80;;;;;;4974144;28;20026;-29
2021/06/20 08:08:00;;;;;;;1.05;0.80;;;24.70;59.70;;;;;;4978555;28;20113;-27
2021/06/20 08:10:26;;;;;;;1.38;0.80;;;24.80;59.70;;;;;;4978802;28;20128;-31
2021/06/20 08:12:52;;;;;;;1.25;0.90;;;24.80;59.50;;;;;;4979128;28;20096;-32
2021/06/20 08:15:17;;;;;;;0.97;0.87;;;24.80;59.50;;;;;;4631767;28;9999765;-27
2021/06/20 08:17:43;;;;;;;1.10;1.00;;;24.60;59.60;;;;;;4976600;28;20921;-31
2021/06/20 08:20:11;;;;;;;1.00;0.85;;;24.60;59.90;;;;;;4976429;28;20141;-31
2021/06/20 08:22:37;;;;;;;1.20;1.00;;;24.70;59.60;;;;;;4976363;28;20038;-41
2021/06/20 08:25:07;;;;;;;1.70;0.95;;;24.50;60.00;;;;;;4974317;28;20039;-36
2021/06/20 08:27:33;;;;;;;3.78;1.02;;;24.60;60.10;;;;;;4975529;28;20117;-34
2021/06/20 08:29:59;;;;;;;1.85;0.90;;;24.60;59.90;;;;;;4975208;28;20049;-33
2021/06/20 08:32:24;;;;;;;1.33;0.85;;;24.70;59.70;;;;;;4975962;28;20018;-32
2021/06/20 08:34:51;;;;;;;1.17;1.08;;;24.80;59.60;;;;;;4973332;28;20069;-28
2021/06/20 08:37:17;;;;;;;1.20;0.98;;;24.80;59.50;;;;;;4977310;28;20050;-30
2021/06/20 08:39:43;;;;;;;1.10;0.80;;;24.90;59.40;;;;;;4975138;28;20038;-32
2021/06/20 08:42:09;;;;;;;0.75;0.73;;;24.90;59.20;;;;;;4975371;28;20057;-35
2021/06/20 08:44:34;;;;;;;1.13;0.80;;;24.90;59.20;;;;;;4973622;28;20114;-31
2021/06/20 08:47:01;;;;;;;4.00;0.77;;;25.00;59.00;;;;;;4976238;28;20045;-33
2021/06/20 08:49:27;;;;;;;1.13;0.80;;;25.10;58.80;;;;;;4976984;28;20070;-36
2021/06/20 08:51:53;;;;;;;2.03;0.75;;;25.10;58.90;;;;;;4976213;28;20038;-31
2021/06/20 08:54:19;;;;;;;1.95;0.95;;;25.00;58.90;;;;;;4975663;28;20052;-36
2021/06/20 08:56:47;;;;;;;1.40;1.00;;;25.00;58.90;;;;;;4979458;28;20485;-30
2021/06/20 08:59:13;;;;;;;3.80;0.90;;;24.90;59.10;;;;;;4977478;28;20040;-32
2021/06/20 09:01:38;;;;;;;0.75;0.70;;;24.80;59.50;;;;;;4979561;28;20034;-34
2021/06/20 09:04:04;;;;;;;1.05;0.93;;;24.70;60.10;;;;;;4977143;28;20081;-31
2021/06/20 09:06:30;;;;;;;2.70;1.30;;;24.70;60.50;;;;;;4977062;28;20805;-34
2021/06/20 09:08:57;;;;;;;2.13;1.50;;;24.90;60.00;;;;;;4978373;28;20060;-35
2021/06/20 09:11:28;;;;;;;4.00;2.22;;;24.70;60.40;;;;;;4978823;28;20034;-33
2021/06/20 09:14:04;;;;;;;2.60;2.08;;;24.80;60.20;;;;;;4976932;28;20613;-32
2021/06/20 09:16:29;;;;;;;3.65;2.25;;;24.70;60.60;;;;;;4978863;28;20508;-30
2021/06/20 09:18:55;;;;;;;3.30;2.25;;;24.60;60.80;;;;;;4976938;28;20096;-31
2021/06/20 09:21:24;;;;;;;5.72;3.00;;;24.70;60.40;;;;;;4979024;28;20022;-32
2021/06/20 09:23:50;;;;;;;8.35;4.57;;;24.60;60.50;;;;;;4978457;28;20107;-35
2021/06/20 09:26:16;;;;;;;10.80;7.65;;;24.70;60.40;;;;;;4974413;28;20030;-30
2021/06/20 09:28:41;;;;;;;10.50;6.55;;;24.70;60.30;;;;;;4979232;28;20920;-36
2021/06/20 09:31:08;;;;;;;12.45;7.05;;;24.80;59.90;;;;;;4979311;28;20033;-33
2021/06/20 09:33:37;;;;;;;15.38;9.90;;;24.70;60.10;;;;;;4978369;28;20073;-29
2021/06/20 09:36:07;;;;;;;12.48;7.72;;;24.70;60.10;;;;;;4974242;28;20026;-32
2021/06/20 09:38:34;;;;;;;10.10;7.57;;;24.60;60.30;;;;;;4977754;28;20117;-33
2021/06/20 09:41:05;;;;;;;12.15;8.55;;;24.60;60.00;;;;;;4978674;28;20204;-30
2021/06/20 09:43:31;;;;;;;13.48;9.25;;;24.60;59.90;;;;;;4979721;28;20030;-32
2021/06/20 09:45:57;;;;;;;15.30;10.63;;;24.60;60.20;;;;;;4974843;28;20041;-32
2021/06/20 09:48:41;;;;;;;19.83;11.75;;;24.70;59.90;;;;;;4977411;28;20034;-34
2021/06/20 09:51:30;;;;;;;15.73;11.43;;;24.30;61.00;;;;;;4977782;28;20152;-30
2021/06/20 09:53:55;;;;;;;12.70;9.40;;;24.20;61.20;;;;;;4975200;28;20560;-30
2021/06/20 09:56:28;;;;;;;10.50;8.15;;;24.30;60.90;;;;;;4975817;28;20031;-31
2021/06/20 09:59:11;;;;;;;12.43;10.30;;;24.10;61.30;;;;;;4977280;28;20043;-29
2021/06/20 10:01:39;;;;;;;13.02;10.20;;;24.30;61.10;;;;;;4976719;28;20126;-27
2021/06/20 10:04:04;;;;;;;16.15;10.52;;;24.50;60.60;;;;;;4973283;28;20049;-30
2021/06/20 10:06:30;;;;;;;12.13;8.93;;;24.40;60.60;;;;;;4974178;28;20034;-35
2021/06/20 10:08:56;;;;;;;12.18;8.95;;;24.60;60.00;;;;;;4978698;28;20049;-32
2021/06/20 10:11:21;;;;;;;10.63;7.70;;;24.60;60.10;;;;;;4978921;28;20085;-36
2021/06/20 10:13:47;;;;;;;9.15;7.00;;;24.70;59.80;;;;;;4977215;28;20693;-36
2021/06/20 10:16:39;;;;;;;6.88;5.93;;;24.80;59.30;;;;;;4976061;28;20091;-32
2021/06/20 10:19:10;;;;;;;10.52;6.25;;;24.80;59.40;;;;;;4978022;28;20046;-33
2021/06/20 10:21:37;;;;;;;9.27;6.63;;;24.70;59.60;;;;;;4978023;28;20030;-30
2021/06/20 10:24:07;;;;;;;8.45;5.43;;;24.70;59.30;;;;;;4977067;28;20061;-34
2021/06/20 10:26:34;;;;;;;7.15;5.10;;;24.70;59.50;;;;;;4979429;28;20224;-29
2021/06/20 10:28:59;;;;;;;6.05;4.60;;;24.80;59.20;;;;;;4980304;28;20046;-31
2021/06/20 10:31:33;;;;;;;5.13;4.10;;;24.60;59.70;;;;;;4981257;28;20046;-30
2021/06/20 10:34:35;;;;;;;8.43;4.18;;;24.80;59.40;;;;;;4977940;28;20031;-30
2021/06/20 10:37:05;;;;;;;5.32;3.90;;;24.90;59.40;;;;;;4958321;28;20708;-30
2021/06/20 10:39:31;;;;;;;4.63;4.07;;;24.90;59.10;;;;;;4957587;28;20043;-30
2021/06/20 10:42:10;;;;;;;4.78;4.28;;;24.90;59.00;;;;;;4957661;28;20041;-30
2021/06/20 10:44:45;;;;;;;7.50;5.22;;;24.90;59.20;;;;;;4953720;28;20061;-31
2021/06/20 10:47:11;;;;;;;10.07;4.80;;;24.90;59.40;;;;;;4940460;28;20133;-33
2021/06/20 10:49:38;;;;;;;6.97;5.20;;;24.70;60.10;;;;;;4956377;28;20168;-36
2021/06/20 10:52:24;;;;;;;9.85;5.63;;;24.40;61.00;;;;;;4941996;28;20157;-30
2021/06/20 10:54:52;;;;;;;9.88;4.07;;;24.70;60.20;;;;;;4952554;28;20055;-32
2021/06/20 10:57:26;;;;;;;5.78;3.78;;;24.60;60.40;;;;;;4941667;28;20034;-32
2021/06/20 10:59:56;;;;;;;4.72;3.95;;;24.60;60.60;;;;;;4956434;28;20394;-30
2021/06/20 11:02:32;;;;;;;4.22;3.83;;;24.60;60.40;;;;;;4952830;28;20499;-37
2021/06/20 11:04:58;;;;;;;4.72;3.15;;;24.70;59.20;;;;;;4943661;28;20089;-31
2021/06/20 11:07:26;;;;;;;4.97;3.10;;;24.70;58.90;;;;;;4955381;28;20038;-35
2021/06/20 11:09:52;;;;;;;4.07;3.60;;;24.90;58.40;;;;;;4953634;28;20105;-31
2021/06/20 11:12:18;;;;;;;3.38;2.83;;;24.90;58.80;;;;;;4948180;28;20988;-32
2021/06/20 11:14:49;;;;;;;4.63;2.80;;;24.80;58.20;;;;;;4972857;28;20394;-29
2021/06/20 11:17:14;;;;;;;19.55;12.95;;;24.80;58.00;;;;;;4975757;28;20034;-33
2021/06/20 11:19:40;;;;;;;36.97;23.90;;;24.70;59.10;;;;;;4999029;28;20068;-30
2021/06/20 11:22:07;;;;;;;63.63;38.25;;;24.60;59.50;;;;;;4996219;28;20103;-29
2021/06/20 11:24:41;;;;;;;58.85;36.80;;;24.60;59.80;;;;;;4995450;28;20042;-33
2021/06/20 11:27:11;;;;;;;50.47;32.97;;;24.60;60.10;;;;;;4986307;28;20042;-34
2021/06/20 11:29:41;;;;;;;52.42;32.40;;;24.60;60.20;;;;;;4985450;28;20590;-30
2021/06/20 11:32:25;;;;;;;51.67;32.95;;;24.70;59.80;;;;;;5001938;28;20423;-31
2021/06/20 11:34:52;;;;;;;39.00;24.10;;;24.80;59.90;;;;;;4977983;28;20054;-29
2021/06/20 11:37:22;;;;;;;40.08;27.83;;;24.90;59.70;;;;;;5008535;28;20571;-30
2021/06/20 11:39:49;;;;;;;37.08;23.00;;;24.80;60.50;;;;;;4994422;28;20132;-28
2021/06/20 11:42:28;;;;;;;28.60;17.67;;;24.90;61.10;;;;;;4988443;28;20788;-31
2021/06/20 11:45:01;;;;;;;23.25;15.48;;;25.00;60.10;;;;;;4991248;28;20116;-29
2021/06/20 11:47:46;;;;;;;16.63;12.32;;;25.10;60.00;;;;;;4981468;28;20053;-30
2021/06/20 11:50:45;;;;;;;12.80;7.95;;;24.80;60.60;;;;;;4983737;28;20059;-35
2021/06/20 11:53:11;;;;;;;8.32;6.45;;;24.80;60.80;;;;;;4975518;28;20726;-28
2021/06/20 11:55:37;;;;;;;7.53;6.07;;;24.80;60.50;;;;;;4986036;28;20057;-40
2021/06/20 11:58:06;;;;;;;6.68;4.45;;;24.80;60.10;;;;;;4995957;28;20056;-32
2021/06/20 12:00:33;;;;;;;4.95;4.18;;;24.80;60.20;;;;;;5001552;28;20132;-32
2021/06/20 12:03:05;;;;;;;4.40;4.00;;;24.80;60.30;;;;;;4992820;28;20054;-32
2021/06/20 12:05:35;;;;;;;4.53;3.17;;;24.80;60.60;;;;;;5001552;28;20042;-29
2021/06/20 12:08:02;;;;;;;4.97;4.03;;;24.70;60.70;;;;;;4988133;28;20057;-32
2021/06/20 12:10:29;;;;;;;4.38;3.17;;;24.90;60.20;;;;;;5011455;28;20054;-30
2021/06/20 12:13:02;;;;;;;3.92;3.13;;;25.00;60.50;;;;;;5017424;28;20056;-31
2021/06/20 12:15:28;;;;;;;5.10;3.30;;;25.00;61.00;;;;;;4989573;28;20413;-31
2021/06/20 12:17:54;;;;;;;3.53;2.08;;;25.00;60.70;;;;;;4997286;28;20060;-27
2021/06/20 12:20:36;;;;;;;3.83;2.40;;;25.10;60.50;;;;;;5010697;28;20128;-30
2021/06/20 12:23:03;;;;;;;4.10;2.40;;;25.00;60.40;;;;;;4997924;28;20068;-34
2021/06/20 12:25:28;;;;;;;2.28;2.08;;;25.00;60.70;;;;;;4999021;28;20179;-27
2021/06/20 12:27:54;;;;;;;2.13;1.92;;;25.10;60.30;;;;;;4989619;28;20659;-32
2021/06/20 12:30:21;;;;;;;3.15;1.52;;;25.10;60.10;;;;;;5002561;28;20056;-36
2021/06/20 12:32:48;;;;;;;2.25;1.45;;;25.10;60.10;;;;;;4990339;28;20148;-31
2021/06/20 12:35:26;;;;;;;1.80;1.42;;;25.10;59.80;;;;;;5004989;28;20041;-34
2021/06/20 12:37:53;;;;;;;1.90;1.50;;;25.10;59.50;;;;;;4981570;28;20551;-31
2021/06/20 12:40:19;;;;;;;2.60;1.40;;;25.10;59.70;;;;;;5007617;28;20037;-32
2021/06/20 12:42:53;;;;;;;1.48;1.25;;;25.00;59.40;;;;;;4991857;28;20046;-36
2021/06/20 12:45:24;;;;;;;1.90;1.52;;;25.10;59.00;;;;;;5003209;28;20045;-36
2021/06/20 12:47:50;;;;;;;1.42;1.33;;;25.10;59.10;;;;;;4994871;28;20061;-35